sensor_id;sensor_type;location;lat;lon;timestamp;pressure;altitude;pressure_sealevel;temperature;humidity
64294;BME280;50636;45.596;5.258;2023-03-01T00:02:11;99093.03;;;6.04;48.05
64294;BME280;50636;45.596;5.258;2023-03-01T00:04:38;99093.34;;;6.09;47.81
64294;BME280;50636;45.596;5.258;2023-03-01T00:07:05;99095.94;;;6.01;47.52
64294;BME280;50636;45.596;5.258;2023-03-01T00:09:32;99098.25;;;6.04;47.40
64294;BME280;50636;45.596;5.258;2023-03-01T00:11:58;99094.50;;;6.07;47.70
64294;BME280;50636;45.596;5.258;2023-03-01T00:14:26;99092.22;;;6.12;47.55
64294;BME280;50636;45.596;5.258;2023-03-01T00:16:54;99096.59;;;6.03;47.49
64294;BME280;50636;45.596;5.258;2023-03-01T00:19:21;99093.34;;;6.01;48.36
64294;BME280;50636;45.596;5.258;2023-03-01T00:21:47;99093.03;;;6.12;48.01
64294;BME280;50636;45.596;5.258;2023-03-01T00:24:21;99090.75;;;6.26;48.44
64294;BME280;50636;45.596;5.258;2023-03-01T00:26:53;99089.94;;;6.42;47.18
64294;BME280;50636;45.596;5.258;2023-03-01T00:29:53;99090.13;;;6.56;47.25
64294;BME280;50636;45.596;5.258;2023-03-01T00:32:19;99082.41;;;6.79;46.01
64294;BME280;50636;45.596;5.258;2023-03-01T00:34:57;99081.25;;;6.82;45.79
64294;BME280;50636;45.596;5.258;2023-03-01T00:37:33;99085.03;;;6.71;45.88
64294;BME280;50636;45.596;5.258;2023-03-01T00:40:12;99100.19;;;6.59;45.77
64294;BME280;50636;45.596;5.258;2023-03-01T00:42:45;99093.38;;;6.34;46.11
64294;BME280;50636;45.596;5.258;2023-03-01T00:45:12;99085.53;;;6.26;47.26
64294;BME280;50636;45.596;5.258;2023-03-01T00:47:42;99085.38;;;6.19;47.43
64294;BME280;50636;45.596;5.258;2023-03-01T00:50:23;99083.94;;;6.25;47.11
64294;BME280;50636;45.596;5.258;2023-03-01T00:53:13;99075.13;;;6.26;47.15
64294;BME280;50636;45.596;5.258;2023-03-01T00:55:58;99083.78;;;6.18;47.31
64294;BME280;50636;45.596;5.258;2023-03-01T00:58:35;99070.38;;;6.05;47.23
64294;BME280;50636;45.596;5.258;2023-03-01T01:01:20;99068.94;;;6.02;47.65
64294;BME280;50636;45.596;5.258;2023-03-01T01:04:25;99062.84;;;5.93;47.08
64294;BME280;50636;45.596;5.258;2023-03-01T01:06:51;99059.78;;;5.90;47.67
64294;BME280;50636;45.596;5.258;2023-03-01T01:09:36;99074.16;;;6.02;48.11
64294;BME280;50636;45.596;5.258;2023-03-01T01:12:06;99077.56;;;6.03;47.17
64294;BME280;50636;45.596;5.258;2023-03-01T01:14:51;99068.59;;;5.97;47.49
64294;BME280;50636;45.596;5.258;2023-03-01T01:17:17;99061.13;;;6.02;48.14
64294;BME280;50636;45.596;5.258;2023-03-01T01:20:02;99059.31;;;6.11;47.87
64294;BME280;50636;45.596;5.258;2023-03-01T01:22:37;99067.28;;;6.26;47.49
64294;BME280;50636;45.596;5.258;2023-03-01T01:25:22;99060.97;;;6.20;47.19
64294;BME280;50636;45.596;5.258;2023-03-01T01:27:51;99059.81;;;6.06;46.91
64294;BME280;50636;45.596;5.258;2023-03-01T01:30:21;99061.06;;;5.94;46.83
64294;BME280;50636;45.596;5.258;2023-03-01T01:32:51;99054.06;;;5.86;47.01
64294;BME280;50636;45.596;5.258;2023-03-01T01:35:22;99054.56;;;5.82;46.96
64294;BME280;50636;45.596;5.258;2023-03-01T01:37:49;99054.56;;;5.82;47.69
64294;BME280;50636;45.596;5.258;2023-03-01T01:40:17;99052.09;;;5.80;47.79
64294;BME280;50636;45.596;5.258;2023-03-01T01:42:44;99049.94;;;5.67;48.63
64294;BME280;50636;45.596;5.258;2023-03-01T01:45:41;99050.78;;;5.68;47.20
64294;BME280;50636;45.596;5.258;2023-03-01T01:51:21;99042.16;;;5.75;48.55
64294;BME280;50636;45.596;5.258;2023-03-01T01:54:31;99028.16;;;5.76;47.70
64294;BME280;50636;45.596;5.258;2023-03-01T02:00:40;99023.94;;;5.84;47.99
64294;BME280;50636;45.596;5.258;2023-03-01T02:03:46;99021.47;;;5.57;47.90
64294;BME280;50636;45.596;5.258;2023-03-01T02:06:51;99024.81;;;5.33;47.60
64294;BME280;50636;45.596;5.258;2023-03-01T02:09:57;99028.66;;;5.21;48.64
64294;BME280;50636;45.596;5.258;2023-03-01T02:12:36;99027.69;;;5.14;49.25
64294;BME280;50636;45.596;5.258;2023-03-01T02:15:05;99030.31;;;5.22;48.16
64294;BME280;50636;45.596;5.258;2023-03-01T02:17:50;99030.22;;;4.97;48.42
64294;BME280;50636;45.596;5.258;2023-03-01T02:23:25;99006.84;;;5.06;48.85
64294;BME280;50636;45.596;5.258;2023-03-01T02:29:03;99009.03;;;4.92;48.85
64294;BME280;50636;45.596;5.258;2023-03-01T02:32:08;99007.78;;;5.05;49.46
64294;BME280;50636;45.596;5.258;2023-03-01T02:34:45;99004.94;;;4.82;48.58
64294;BME280;50636;45.596;5.258;2023-03-01T02:37:14;98998.91;;;4.73;49.37
64294;BME280;50636;45.596;5.258;2023-03-01T02:40:19;98990.16;;;4.82;49.83
64294;BME280;50636;45.596;5.258;2023-03-01T02:43:07;98986.56;;;4.75;49.00
64294;BME280;50636;45.596;5.258;2023-03-01T02:46:15;98978.91;;;4.73;49.44
64294;BME280;50636;45.596;5.258;2023-03-01T02:49:00;98982.16;;;4.75;49.33
64294;BME280;50636;45.596;5.258;2023-03-01T02:57:34;98969.16;;;5.26;49.06
64294;BME280;50636;45.596;5.258;2023-03-01T03:00:37;98968.22;;;5.27;48.72
64294;BME280;50636;45.596;5.258;2023-03-01T03:03:42;98961.53;;;5.33;49.54
64294;BME280;50636;45.596;5.258;2023-03-01T03:09:13;98966.09;;;5.39;48.33
64294;BME280;50636;45.596;5.258;2023-03-01T03:11:52;98961.00;;;5.13;48.85
64294;BME280;50636;45.596;5.258;2023-03-01T03:14:36;98960.13;;;4.96;49.40
64294;BME280;50636;45.596;5.258;2023-03-01T03:17:23;98957.75;;;5.11;48.80
64294;BME280;50636;45.596;5.258;2023-03-01T03:20:06;98951.09;;;5.25;49.52
64294;BME280;50636;45.596;5.258;2023-03-01T03:23:09;98957.63;;;5.37;49.05
64294;BME280;50636;45.596;5.258;2023-03-01T03:25:50;98955.22;;;5.35;49.06
64294;BME280;50636;45.596;5.258;2023-03-01T03:28:34;98951.31;;;5.31;48.93
64294;BME280;50636;45.596;5.258;2023-03-01T03:31:11;98943.81;;;5.36;48.29
64294;BME280;50636;45.596;5.258;2023-03-01T03:33:54;98941.06;;;5.38;48.75
64294;BME280;50636;45.596;5.258;2023-03-01T03:36:29;98942.84;;;5.37;48.49
64294;BME280;50636;45.596;5.258;2023-03-01T03:39:15;98943.16;;;5.26;48.71
64294;BME280;50636;45.596;5.258;2023-03-01T03:41:58;98942.75;;;4.96;48.59
64294;BME280;50636;45.596;5.258;2023-03-01T03:44:38;98942.25;;;4.93;48.82
64294;BME280;50636;45.596;5.258;2023-03-01T03:47:08;98942.38;;;4.75;49.40
64294;BME280;50636;45.596;5.258;2023-03-01T03:49:43;98936.44;;;4.65;49.12
64294;BME280;50636;45.596;5.258;2023-03-01T03:52:28;98942.91;;;4.26;48.94
64294;BME280;50636;45.596;5.258;2023-03-01T03:55:05;98944.91;;;3.88;50.21
64294;BME280;50636;45.596;5.258;2023-03-01T03:58:10;98938.31;;;3.94;50.83
64294;BME280;50636;45.596;5.258;2023-03-01T04:00:51;98942.84;;;4.18;50.36
64294;BME280;50636;45.596;5.258;2023-03-01T04:03:35;98938.88;;;4.06;50.18
64294;BME280;50636;45.596;5.258;2023-03-01T04:06:04;98935.94;;;4.00;50.62
64294;BME280;50636;45.596;5.258;2023-03-01T04:08:41;98939.75;;;4.14;51.27
64294;BME280;50636;45.596;5.258;2023-03-01T04:11:07;98942.75;;;4.28;50.63
64294;BME280;50636;45.596;5.258;2023-03-01T04:14:09;98943.47;;;4.12;50.76
64294;BME280;50636;45.596;5.258;2023-03-01T04:16:52;98941.47;;;4.06;50.97
64294;BME280;50636;45.596;5.258;2023-03-01T04:19:18;98933.50;;;3.99;51.39
64294;BME280;50636;45.596;5.258;2023-03-01T04:22:21;98924.72;;;4.26;51.00
64294;BME280;50636;45.596;5.258;2023-03-01T04:25:04;98929.41;;;4.49;50.33
64294;BME280;50636;45.596;5.258;2023-03-01T04:27:33;98930.56;;;4.54;49.94
64294;BME280;50636;45.596;5.258;2023-03-01T04:30:43;98932.53;;;4.60;50.27
64294;BME280;50636;45.596;5.258;2023-03-01T04:33:22;98924.44;;;4.64;49.71
64294;BME280;50636;45.596;5.258;2023-03-01T04:35:48;98922.66;;;4.72;49.80
64294;BME280;50636;45.596;5.258;2023-03-01T04:38:26;98920.91;;;4.73;49.85
64294;BME280;50636;45.596;5.258;2023-03-01T04:41:14;98922.16;;;4.69;49.08
64294;BME280;50636;45.596;5.258;2023-03-01T04:43:48;98926.03;;;4.65;49.43
64294;BME280;50636;45.596;5.258;2023-03-01T04:46:33;98929.56;;;4.47;49.80
64294;BME280;50636;45.596;5.258;2023-03-01T04:49:09;98925.53;;;4.53;50.08
64294;BME280;50636;45.596;5.258;2023-03-01T04:51:52;98921.63;;;4.49;50.48
64294;BME280;50636;45.596;5.258;2023-03-01T04:54:32;98919.88;;;4.66;49.86
64294;BME280;50636;45.596;5.258;2023-03-01T04:57:10;98922.31;;;4.59;49.97
64294;BME280;50636;45.596;5.258;2023-03-01T04:59:39;98926.34;;;4.53;50.00
64294;BME280;50636;45.596;5.258;2023-03-01T05:02:11;98923.28;;;4.32;49.60
64294;BME280;50636;45.596;5.258;2023-03-01T05:04:42;98926.97;;;4.21;50.60
64294;BME280;50636;45.596;5.258;2023-03-01T05:07:12;98919.59;;;4.43;50.32
64294;BME280;50636;45.596;5.258;2023-03-01T05:09:46;98916.81;;;4.36;51.21
64294;BME280;50636;45.596;5.258;2023-03-01T05:12:15;98915.25;;;4.43;50.65
64294;BME280;50636;45.596;5.258;2023-03-01T05:14:46;98917.91;;;4.59;50.50
64294;BME280;50636;45.596;5.258;2023-03-01T05:17:18;98921.84;;;4.64;50.46
64294;BME280;50636;45.596;5.258;2023-03-01T05:19:45;98917.69;;;4.79;50.44
64294;BME280;50636;45.596;5.258;2023-03-01T05:22:25;98917.69;;;4.87;49.00
64294;BME280;50636;45.596;5.258;2023-03-01T05:24:52;98914.13;;;4.88;49.37
64294;BME280;50636;45.596;5.258;2023-03-01T05:27:19;98908.09;;;4.79;49.38
64294;BME280;50636;45.596;5.258;2023-03-01T05:30:06;98910.84;;;4.86;49.19
64294;BME280;50636;45.596;5.258;2023-03-01T05:32:54;98912.50;;;4.87;49.74
64294;BME280;50636;45.596;5.258;2023-03-01T05:35:22;98909.03;;;4.78;49.70
64294;BME280;50636;45.596;5.258;2023-03-01T05:37:49;98910.91;;;4.60;49.68
64294;BME280;50636;45.596;5.258;2023-03-01T05:40:19;98907.13;;;4.46;50.06
64294;BME280;50636;45.596;5.258;2023-03-01T05:42:49;98898.56;;;4.54;50.48
64294;BME280;50636;45.596;5.258;2023-03-01T05:45:17;98899.25;;;4.64;50.47
64294;BME280;50636;45.596;5.258;2023-03-01T05:47:46;98904.16;;;4.75;50.08
64294;BME280;50636;45.596;5.258;2023-03-01T05:52:50;98908.44;;;4.93;49.63
64294;BME280;50636;45.596;5.258;2023-03-01T05:55:19;98907.91;;;4.73;49.31
64294;BME280;50636;45.596;5.258;2023-03-01T05:57:48;98895.97;;;4.62;49.81
64294;BME280;50636;45.596;5.258;2023-03-01T06:00:19;98907.63;;;4.50;49.92
64294;BME280;50636;45.596;5.258;2023-03-01T06:02:46;98906.81;;;4.49;49.57
64294;BME280;50636;45.596;5.258;2023-03-01T06:05:14;98901.19;;;4.62;49.56
64294;BME280;50636;45.596;5.258;2023-03-01T06:07:42;98907.59;;;4.84;49.40
64294;BME280;50636;45.596;5.258;2023-03-01T06:10:12;98906.97;;;4.98;48.76
64294;BME280;50636;45.596;5.258;2023-03-01T06:12:41;98908.00;;;5.14;48.65
64294;BME280;50636;45.596;5.258;2023-03-01T06:15:13;98916.06;;;4.94;48.13
64294;BME280;50636;45.596;5.258;2023-03-01T06:17:44;98917.28;;;4.66;48.18
64294;BME280;50636;45.596;5.258;2023-03-01T06:20:21;98916.34;;;4.40;49.01
64294;BME280;50636;45.596;5.258;2023-03-01T06:22:52;98910.50;;;4.38;49.07
64294;BME280;50636;45.596;5.258;2023-03-01T06:25:23;98912.94;;;4.40;49.54
64294;BME280;50636;45.596;5.258;2023-03-01T06:27:50;98908.97;;;4.62;50.39
64294;BME280;50636;45.596;5.258;2023-03-01T06:30:20;98911.50;;;4.80;49.60
64294;BME280;50636;45.596;5.258;2023-03-01T06:33:08;98920.94;;;4.81;49.48
64294;BME280;50636;45.596;5.258;2023-03-01T06:35:34;98916.88;;;4.87;49.59
64294;BME280;50636;45.596;5.258;2023-03-01T06:38:18;98913.19;;;4.97;50.33
64294;BME280;50636;45.596;5.258;2023-03-01T06:40:56;98914.47;;;4.93;49.69
64294;BME280;50636;45.596;5.258;2023-03-01T06:43:40;98917.38;;;4.90;49.69
64294;BME280;50636;45.596;5.258;2023-03-01T06:46:21;98913.44;;;4.86;49.42
64294;BME280;50636;45.596;5.258;2023-03-01T06:49:02;98914.50;;;5.02;49.67
64294;BME280;50636;45.596;5.258;2023-03-01T06:51:39;98922.75;;;4.97;48.93
64294;BME280;50636;45.596;5.258;2023-03-01T06:54:15;98912.69;;;5.02;49.05
64294;BME280;50636;45.596;5.258;2023-03-01T06:56:46;98909.13;;;5.03;48.59
64294;BME280;50636;45.596;5.258;2023-03-01T06:59:14;98918.25;;;5.07;48.59
64294;BME280;50636;45.596;5.258;2023-03-01T07:01:41;98913.69;;;5.01;47.81
64294;BME280;50636;45.596;5.258;2023-03-01T07:04:11;98921.00;;;5.14;48.05
64294;BME280;50636;45.596;5.258;2023-03-01T07:06:39;98919.38;;;5.21;47.81
64294;BME280;50636;45.596;5.258;2023-03-01T07:09:06;98923.47;;;5.24;48.66
64294;BME280;50636;45.596;5.258;2023-03-01T07:11:33;98920.38;;;5.28;48.45
64294;BME280;50636;45.596;5.258;2023-03-01T07:14:00;98927.53;;;5.26;47.55
64294;BME280;50636;45.596;5.258;2023-03-01T07:16:28;98922.63;;;5.23;47.22
64294;BME280;50636;45.596;5.258;2023-03-01T07:18:55;98921.00;;;5.14;48.05
64294;BME280;50636;45.596;5.258;2023-03-01T07:21:23;98922.03;;;5.29;47.63
64294;BME280;50636;45.596;5.258;2023-03-01T07:23:51;98916.69;;;5.55;47.14
64294;BME280;50636;45.596;5.258;2023-03-01T07:26:18;98905.13;;;5.58;47.28
64294;BME280;50636;45.596;5.258;2023-03-01T07:28:44;98904.31;;;5.66;47.20
64294;BME280;50636;45.596;5.258;2023-03-01T07:31:11;98897.44;;;5.81;46.94
64294;BME280;50636;45.596;5.258;2023-03-01T07:33:39;98912.59;;;5.86;46.39
64294;BME280;50636;45.596;5.258;2023-03-01T07:36:06;98912.75;;;5.92;45.95
64294;BME280;50636;45.596;5.258;2023-03-01T07:38:35;98914.56;;;6.00;46.18
64294;BME280;50636;45.596;5.258;2023-03-01T07:41:03;98906.91;;;5.98;45.54
64294;BME280;50636;45.596;5.258;2023-03-01T07:43:30;98906.44;;;5.62;45.72
64294;BME280;50636;45.596;5.258;2023-03-01T07:46:04;98913.88;;;5.40;46.75
64294;BME280;50636;45.596;5.258;2023-03-01T07:48:33;98912.28;;;5.39;47.27
64294;BME280;50636;45.596;5.258;2023-03-01T07:51:04;98913.91;;;5.49;47.59
64294;BME280;50636;45.596;5.258;2023-03-01T07:53:33;98910.47;;;5.40;47.19
64294;BME280;50636;45.596;5.258;2023-03-01T07:56:09;98899.28;;;5.39;47.00
64294;BME280;50636;45.596;5.258;2023-03-01T07:58:42;98909.66;;;5.31;47.24
64294;BME280;50636;45.596;5.258;2023-03-01T08:01:21;98902.97;;;5.37;47.09
64294;BME280;50636;45.596;5.258;2023-03-01T08:04:09;98903.63;;;5.39;47.05
64294;BME280;50636;45.596;5.258;2023-03-01T08:06:43;98904.63;;;5.38;46.45
64294;BME280;50636;45.596;5.258;2023-03-01T08:09:11;98897.97;;;5.44;46.90
64294;BME280;50636;45.596;5.258;2023-03-01T08:11:41;98889.66;;;5.56;46.90
64294;BME280;50636;45.596;5.258;2023-03-01T08:14:09;98895.34;;;5.85;45.96
64294;BME280;50636;45.596;5.258;2023-03-01T08:16:56;98891.44;;;6.05;45.16
64294;BME280;50636;45.596;5.258;2023-03-01T08:19:32;98894.00;;;6.13;45.51
64294;BME280;50636;45.596;5.258;2023-03-01T08:22:12;98890.06;;;6.26;44.80
64294;BME280;50636;45.596;5.258;2023-03-01T08:24:41;98894.97;;;6.20;45.17
64294;BME280;50636;45.596;5.258;2023-03-01T08:27:16;98882.13;;;6.19;45.19
64294;BME280;50636;45.596;5.258;2023-03-01T08:29:44;98870.53;;;6.22;45.20
64294;BME280;50636;45.596;5.258;2023-03-01T08:32:11;98877.81;;;6.43;44.80
64294;BME280;50636;45.596;5.258;2023-03-01T08:34:38;98882.50;;;6.47;44.43
64294;BME280;50636;45.596;5.258;2023-03-01T08:37:08;98884.00;;;6.42;44.53
64294;BME280;50636;45.596;5.258;2023-03-01T08:39:47;98878.94;;;6.48;44.46
64294;BME280;50636;45.596;5.258;2023-03-01T08:42:21;98885.25;;;6.62;44.27
64294;BME280;50636;45.596;5.258;2023-03-01T08:44:51;98883.28;;;6.64;44.32
64294;BME280;50636;45.596;5.258;2023-03-01T08:47:30;98873.16;;;6.61;44.89
64294;BME280;50636;45.596;5.258;2023-03-01T08:50:10;98869.19;;;6.73;43.99
64294;BME280;50636;45.596;5.258;2023-03-01T08:52:39;98874.47;;;6.96;44.08
64294;BME280;50636;45.596;5.258;2023-03-01T08:55:08;98874.75;;;7.02;44.09
64294;BME280;50636;45.596;5.258;2023-03-01T08:57:35;98878.44;;;6.84;43.73
64294;BME280;50636;45.596;5.258;2023-03-01T09:00:15;98871.84;;;6.65;43.85
64294;BME280;50636;45.596;5.258;2023-03-01T09:02:43;98871.69;;;6.67;44.46
64294;BME280;50636;45.596;5.258;2023-03-01T09:05:09;98876.13;;;6.58;44.25
64294;BME280;50636;45.596;5.258;2023-03-01T09:08:16;98877.34;;;6.39;45.36
64294;BME280;50636;45.596;5.258;2023-03-01T09:11:01;98875.78;;;6.61;45.26
64294;BME280;50636;45.596;5.258;2023-03-01T09:13:47;98873.34;;;6.91;44.69
64294;BME280;50636;45.596;5.258;2023-03-01T09:16:26;98867.09;;;7.00;44.16
64294;BME280;50636;45.596;5.258;2023-03-01T09:19:08;98866.91;;;7.02;44.06
64294;BME280;50636;45.596;5.258;2023-03-01T09:21:34;98871.28;;;7.09;43.57
64294;BME280;50636;45.596;5.258;2023-03-01T09:24:02;98866.28;;;6.99;43.57
64294;BME280;50636;45.596;5.258;2023-03-01T09:26:29;98861.69;;;7.02;43.52
64294;BME280;50636;45.596;5.258;2023-03-01T09:28:56;98865.81;;;6.96;43.53
64294;BME280;50636;45.596;5.258;2023-03-01T09:31:24;98873.53;;;6.89;44.09
64294;BME280;50636;45.596;5.258;2023-03-01T09:33:54;98880.66;;;6.95;43.64
64294;BME280;50636;45.596;5.258;2023-03-01T09:36:24;98875.59;;;6.94;43.83
64294;BME280;50636;45.596;5.258;2023-03-01T09:38:51;98875.09;;;6.98;43.70
64294;BME280;50636;45.596;5.258;2023-03-01T09:41:58;98883.84;;;7.06;43.46
64294;BME280;50636;45.596;5.258;2023-03-01T09:45:20;98874.34;;;7.36;44.47
64294;BME280;50636;45.596;5.258;2023-03-01T09:48:28;98877.56;;;7.23;43.33
64294;BME280;50636;45.596;5.258;2023-03-01T09:54:11;98869.34;;;7.26;43.61
64294;BME280;50636;45.596;5.258;2023-03-01T10:00:17;98865.56;;;7.52;43.06
64294;BME280;50636;45.596;5.258;2023-03-01T10:05:59;98853.63;;;7.72;42.95
64294;BME280;50636;45.596;5.258;2023-03-01T10:08:57;98857.44;;;7.70;42.95
64294;BME280;50636;45.596;5.258;2023-03-01T10:11:32;98849.13;;;7.66;42.77
64294;BME280;50636;45.596;5.258;2023-03-01T10:19:45;98849.81;;;7.83;42.14
64294;BME280;50636;45.596;5.258;2023-03-01T10:22:26;98856.13;;;7.89;42.88
64294;BME280;50636;45.596;5.258;2023-03-01T10:30:54;98842.97;;;8.12;41.89
64294;BME280;50636;45.596;5.258;2023-03-01T10:33:44;98850.00;;;8.11;41.87
64294;BME280;50636;45.596;5.258;2023-03-01T10:36:12;98845.88;;;8.17;41.41
64294;BME280;50636;45.596;5.258;2023-03-01T10:38:57;98839.81;;;8.31;41.72
64294;BME280;50636;45.596;5.258;2023-03-01T10:41:40;98843.69;;;8.50;41.47
64294;BME280;50636;45.596;5.258;2023-03-01T10:44:48;98837.38;;;8.59;41.71
64294;BME280;50636;45.596;5.258;2023-03-01T10:47:23;98831.06;;;8.54;40.97
64294;BME280;50636;45.596;5.258;2023-03-01T10:50:12;98834.81;;;8.36;41.34
64294;BME280;50636;45.596;5.258;2023-03-01T10:53:04;98820.97;;;8.21;40.95
64294;BME280;50636;45.596;5.258;2023-03-01T10:55:45;98816.91;;;8.48;41.29
64294;BME280;50636;45.596;5.258;2023-03-01T10:58:21;98817.31;;;8.67;41.28
64294;BME280;50636;45.596;5.258;2023-03-01T11:04:16;98807.69;;;9.10;40.10
64294;BME280;50636;45.596;5.258;2023-03-01T11:06:59;98799.25;;;9.15;39.95
64294;BME280;50636;45.596;5.258;2023-03-01T11:09:58;98806.50;;;9.13;40.29
64294;BME280;50636;45.596;5.258;2023-03-01T11:12:25;98806.88;;;9.10;39.85
64294;BME280;50636;45.596;5.258;2023-03-01T11:14:55;98802.69;;;9.15;39.77
64294;BME280;50636;45.596;5.258;2023-03-01T11:17:31;98796.94;;;9.27;39.76
64294;BME280;50636;45.596;5.258;2023-03-01T11:20:31;98796.84;;;9.42;39.70
64294;BME280;50636;45.596;5.258;2023-03-01T11:23:05;98785.47;;;9.28;39.97
64294;BME280;50636;45.596;5.258;2023-03-01T11:25:56;98775.09;;;9.41;39.90
64294;BME280;50636;45.596;5.258;2023-03-01T11:28:28;98780.63;;;9.53;39.58
64294;BME280;50636;45.596;5.258;2023-03-01T11:35:10;98766.78;;;9.66;39.86
64294;BME280;50636;45.596;5.258;2023-03-01T11:37:26;98762.88;;;9.90;39.90
64294;BME280;50636;45.596;5.258;2023-03-01T11:40:15;98767.63;;;10.08;39.16
64294;BME280;50636;45.596;5.258;2023-03-01T11:48:52;98751.88;;;10.01;38.35
64294;BME280;50636;45.596;5.258;2023-03-01T11:51:52;98741.41;;;10.08;37.87
64294;BME280;50636;45.596;5.258;2023-03-01T11:54:53;98742.34;;;9.93;38.47
64294;BME280;50636;45.596;5.258;2023-03-01T11:58:01;98736.94;;;10.02;38.30
64294;BME280;50636;45.596;5.258;2023-03-01T12:06:50;98727.59;;;9.51;39.32
64294;BME280;50636;45.596;5.258;2023-03-01T12:09:43;98726.81;;;9.50;38.99
64294;BME280;50636;45.596;5.258;2023-03-01T12:15:39;98726.63;;;9.52;39.04
64294;BME280;50636;45.596;5.258;2023-03-01T12:22:15;98714.50;;;9.51;38.90
64294;BME280;50636;45.596;5.258;2023-03-01T12:50:05;98692.94;;;9.49;39.43
64294;BME280;50636;45.596;5.258;2023-03-01T12:53:02;98697.75;;;9.45;39.00
64294;BME280;50636;45.596;5.258;2023-03-01T12:58:59;98699.38;;;9.46;39.93
64294;BME280;50636;45.596;5.258;2023-03-01T13:01:40;98685.94;;;9.56;39.20
64294;BME280;50636;45.596;5.258;2023-03-01T13:04:19;98689.78;;;9.60;39.27
64294;BME280;50636;45.596;5.258;2023-03-01T13:12:53;98679.41;;;9.80;39.03
64294;BME280;50636;45.596;5.258;2023-03-01T13:15:40;98679.59;;;9.78;39.83
64294;BME280;50636;45.596;5.258;2023-03-01T13:20:49;98673.22;;;10.08;38.94
64294;BME280;50636;45.596;5.258;2023-03-01T13:26:17;98667.03;;;10.29;38.36
64294;BME280;50636;45.596;5.258;2023-03-01T13:28:52;98670.28;;;10.24;38.95
64294;BME280;50636;45.596;5.258;2023-03-01T13:34:00;98665.41;;;10.28;38.75
64294;BME280;50636;45.596;5.258;2023-03-01T13:38:56;98667.69;;;10.31;38.80
64294;BME280;50636;45.596;5.258;2023-03-01T13:52:42;98651.75;;;10.39;38.68
64294;BME280;50636;45.596;5.258;2023-03-01T13:55:27;98653.16;;;10.42;38.62
64294;BME280;50636;45.596;5.258;2023-03-01T13:58:12;98651.78;;;10.52;38.95
64294;BME280;50636;45.596;5.258;2023-03-01T14:01:05;98649.34;;;10.57;38.81
64294;BME280;50636;45.596;5.258;2023-03-01T14:03:42;98643.50;;;10.55;38.83
64294;BME280;50636;45.596;5.258;2023-03-01T14:06:23;98640.03;;;10.68;39.09
64294;BME280;50636;45.596;5.258;2023-03-01T14:09:12;98637.84;;;10.85;39.08
64294;BME280;50636;45.596;5.258;2023-03-01T14:18:26;98629.94;;;10.98;37.73
64294;BME280;50636;45.596;5.258;2023-03-01T14:21:20;98631.16;;;10.89;38.12
64294;BME280;50636;45.596;5.258;2023-03-01T14:24:34;98638.63;;;10.92;38.18
64294;BME280;50636;45.596;5.258;2023-03-01T14:26:48;98637.63;;;10.93;38.21
64294;BME280;50636;45.596;5.258;2023-03-01T14:29:53;98639.44;;;10.66;38.49
64294;BME280;50636;45.596;5.258;2023-03-01T14:32:54;98636.84;;;10.53;38.29
64294;BME280;50636;45.596;5.258;2023-03-01T14:35:39;98635.59;;;10.35;38.33
64294;BME280;50636;45.596;5.258;2023-03-01T14:38:37;98637.34;;;10.22;38.61
64294;BME280;50636;45.596;5.258;2023-03-01T14:41:22;98633.09;;;10.07;38.64
64294;BME280;50636;45.596;5.258;2023-03-01T14:43:57;98627.03;;;10.00;38.87
64294;BME280;50636;45.596;5.258;2023-03-01T14:46:36;98620.59;;;10.09;39.51
64294;BME280;50636;45.596;5.258;2023-03-01T14:49:14;98627.28;;;10.25;39.27
64294;BME280;50636;45.596;5.258;2023-03-01T14:51:59;98621.84;;;10.27;38.89
64294;BME280;50636;45.596;5.258;2023-03-01T14:54:40;98623.25;;;10.23;39.20
64294;BME280;50636;45.596;5.258;2023-03-01T14:59:53;98626.00;;;9.94;38.93
64294;BME280;50636;45.596;5.258;2023-03-01T15:02:46;98635.22;;;9.77;39.37
64294;BME280;50636;45.596;5.258;2023-03-01T15:06:11;98631.81;;;9.76;39.52
64294;BME280;50636;45.596;5.258;2023-03-01T15:08:59;98636.97;;;9.63;39.75
64294;BME280;50636;45.596;5.258;2023-03-01T15:11:31;98629.22;;;9.42;39.84
64294;BME280;50636;45.596;5.258;2023-03-01T15:13:59;98632.41;;;9.30;40.72
64294;BME280;50636;45.596;5.258;2023-03-01T15:16:29;98629.94;;;9.22;40.68
64294;BME280;50636;45.596;5.258;2023-03-01T15:19:06;98639.19;;;9.18;41.11
64294;BME280;50636;45.596;5.258;2023-03-01T15:21:40;98635.38;;;9.27;41.14
64294;BME280;50636;45.596;5.258;2023-03-01T15:24:31;98626.47;;;9.50;40.88
64294;BME280;50636;45.596;5.258;2023-03-01T15:27:28;98640.63;;;9.62;40.79
64294;BME280;50636;45.596;5.258;2023-03-01T15:30:32;98632.00;;;9.75;40.46
64294;BME280;50636;45.596;5.258;2023-03-01T15:33:39;98625.28;;;9.66;39.93
64294;BME280;50636;45.596;5.258;2023-03-01T15:37:02;98625.94;;;9.33;40.93
64294;BME280;50636;45.596;5.258;2023-03-01T15:43:45;98641.41;;;9.21;40.98
64294;BME280;50636;45.596;5.258;2023-03-01T15:46:52;98644.41;;;9.18;41.20
64294;BME280;50636;45.596;5.258;2023-03-01T15:52:12;98644.63;;;9.23;41.64
64294;BME280;50636;45.596;5.258;2023-03-01T15:55:25;98649.94;;;9.30;41.59
64294;BME280;50636;45.596;5.258;2023-03-01T15:58:10;98648.06;;;9.24;41.55
64294;BME280;50636;45.596;5.258;2023-03-01T16:00:40;98652.03;;;9.13;42.05
64294;BME280;50636;45.596;5.258;2023-03-01T16:03:10;98656.28;;;9.14;42.47
64294;BME280;50636;45.596;5.258;2023-03-01T16:05:38;98651.22;;;9.12;42.13
64294;BME280;50636;45.596;5.258;2023-03-01T16:08:07;98646.59;;;9.14;42.51
64294;BME280;50636;45.596;5.258;2023-03-01T16:10:46;98637.38;;;9.25;42.41
64294;BME280;50636;45.596;5.258;2023-03-01T16:13:16;98629.38;;;9.33;42.28
64294;BME280;50636;45.596;5.258;2023-03-01T16:15:46;98627.59;;;9.34;41.80
64294;BME280;50636;45.596;5.258;2023-03-01T16:18:16;98632.38;;;9.24;42.14
64294;BME280;50636;45.596;5.258;2023-03-01T16:20:53;98633.53;;;9.21;42.64
64294;BME280;50636;45.596;5.258;2023-03-01T16:23:26;98627.75;;;9.26;42.67
64294;BME280;50636;45.596;5.258;2023-03-01T16:25:53;98630.75;;;9.29;42.61
64294;BME280;50636;45.596;5.258;2023-03-01T16:28:29;98644.84;;;9.22;43.02
64294;BME280;50636;45.596;5.258;2023-03-01T16:30:56;98638.00;;;9.27;43.18
64294;BME280;50636;45.596;5.258;2023-03-01T16:33:24;98636.84;;;9.36;43.10
64294;BME280;50636;45.596;5.258;2023-03-01T16:35:51;98641.34;;;9.49;42.77